Time;durP1;ratioP1;P1;durP2;ratioP2;P2;SDS_P1;SDS_P2;PMS_P1;PMS_P2;Temp;Humidity;BMP_temperature;BMP_pressure;BME280_temperature;BME280_humidity;BME280_pressure;Samples;Min_cycle;Max_cycle;Signal;HPM_P1;HPM_P2
2024/01/14 00:02:27;;;;;;;10.85;7.18;;;;;;;1.88;100.00;100172.75;7394779;19;20430;-67
2024/01/14 00:04:55;;;;;;;11.02;6.85;;;;;;;1.89;100.00;100163.28;7392410;19;20078;-67
2024/01/14 00:07:23;;;;;;;9.63;6.50;;;;;;;1.88;100.00;100171.91;7394407;19;20027;-67
2024/01/14 00:09:52;;;;;;;8.88;6.45;;;;;;;1.88;100.00;100167.59;7392828;19;20070;-67
2024/01/14 00:12:21;;;;;;;11.15;6.55;;;;;;;1.88;100.00;100177.94;7391995;19;20504;-67
2024/01/14 00:14:49;;;;;;;9.70;6.82;;;;;;;1.90;100.00;100191.75;7391968;19;20018;-67
2024/01/14 00:17:21;;;;;;;9.73;6.53;;;;;;;1.91;100.00;100177.97;7393806;19;20018;-67
2024/01/14 00:19:50;;;;;;;7.95;5.93;;;;;;;1.95;100.00;100166.75;7392271;19;20022;-67
2024/01/14 00:22:19;;;;;;;7.45;5.78;;;;;;;1.94;100.00;100154.69;7393729;19;20373;-67
2024/01/14 00:24:49;;;;;;;23.20;7.13;;;;;;;1.97;100.00;100156.41;7391407;19;20355;-67
2024/01/14 00:27:18;;;;;;;10.80;6.45;;;;;;;1.96;100.00;100146.94;7393906;19;20034;-65
2024/01/14 00:29:46;;;;;;;8.98;6.80;;;;;;;1.98;100.00;100146.94;7392481;19;20034;-69
2024/01/14 00:32:15;;;;;;;9.88;7.05;;;;;;;1.96;100.00;100141.78;7394268;19;20102;-76
2024/01/14 00:34:43;;;;;;;12.27;6.43;;;;;;;1.98;100.00;100127.09;7391437;19;20494;-71
2024/01/14 00:37:12;;;;;;;7.82;6.30;;;;;;;2.02;100.00;100134.03;7400278;19;20074;-68
2024/01/14 00:39:40;;;;;;;10.73;6.57;;;;;;;2.02;100.00;100113.34;7401025;19;20074;-67
2024/01/14 00:42:09;;;;;;;11.35;6.15;;;;;;;2.03;100.00;100127.13;7400965;19;20018;-68
2024/01/14 00:44:37;;;;;;;9.02;5.85;;;;;;;2.10;100.00;100121.13;7397652;19;20014;-69
2024/01/14 00:47:06;;;;;;;7.30;5.68;;;;;;;2.11;100.00;100118.53;7400856;19;20074;-69
2024/01/14 00:49:35;;;;;;;9.27;5.53;;;;;;;2.21;100.00;100129.78;7399879;19;20007;-69
2024/01/14 00:52:07;;;;;;;8.10;5.50;;;;;;;2.25;100.00;100133.22;7400380;19;20364;-69
2024/01/14 00:54:35;;;;;;;11.13;5.47;;;;;;;2.28;100.00;100113.38;7397779;19;20360;-68
2024/01/14 00:57:04;;;;;;;8.82;5.68;;;;;;;2.31;100.00;100104.75;7400080;19;20011;-68
2024/01/14 00:59:33;;;;;;;9.38;5.68;;;;;;;2.30;100.00;100112.53;7400277;19;20016;-68
2024/01/14 01:02:01;;;;;;;7.50;5.07;;;;;;;2.25;100.00;100113.38;7400681;19;20027;-68
2024/01/14 01:04:30;;;;;;;8.40;5.65;;;;;;;2.25;100.00;100130.63;7397918;19;20028;-68
2024/01/14 01:06:58;;;;;;;8.68;5.85;;;;;;;2.23;100.00;100115.09;7400099;19;20010;-68
2024/01/14 01:09:29;;;;;;;9.15;5.72;;;;;;;2.23;100.00;100103.91;7399429;19;20107;-68
2024/01/14 01:11:58;;;;;;;8.70;5.40;;;;;;;2.20;100.00;100153.03;7400442;19;20014;-69
2024/01/14 01:14:27;;;;;;;7.22;5.45;;;;;;;2.19;100.00;100122.88;7397268;19;20031;-68
2024/01/14 01:16:55;;;;;;;11.73;6.88;;;;;;;2.18;100.00;100115.97;7399803;19;20016;-68
2024/01/14 01:19:30;;;;;;;12.30;7.20;;;;;;;2.15;100.00;100110.75;7399285;19;20077;-68
2024/01/14 01:21:59;;;;;;;9.40;6.13;;;;;;;2.11;100.00;100105.59;7400133;19;20086;-68
2024/01/14 01:24:30;;;;;;;8.05;5.93;;;;;;;2.10;100.00;100100.41;7396989;19;20380;-68
2024/01/14 01:26:59;;;;;;;9.73;6.53;;;;;;;2.06;100.00;100103.84;7399830;19;20014;-69
2024/01/14 01:29:27;;;;;;;11.38;6.28;;;;;;;2.03;100.00;100093.50;7398405;19;20014;-68
2024/01/14 01:31:56;;;;;;;9.18;7.07;;;;;;;2.01;100.00;100100.38;7399326;19;20074;-68
2024/01/14 01:34:24;;;;;;;11.02;7.45;;;;;;;1.96;100.00;100102.97;7396788;19;20418;-69
2024/01/14 01:36:53;;;;;;;13.27;7.85;;;;;;;1.94;100.00;100089.16;7399101;19;20035;-69
2024/01/14 01:39:21;;;;;;;10.73;8.18;;;;;;;1.91;100.00;100091.75;7396788;19;20011;-68
2024/01/14 01:41:53;;;;;;;11.07;7.40;;;;;;;1.86;100.00;100076.19;7398600;19;20430;-68
2024/01/14 01:44:22;;;;;;;10.15;8.18;;;;;;;1.82;100.00;100087.41;7397158;19;20104;-70
2024/01/14 01:46:52;;;;;;;12.25;8.25;;;;;;;1.76;100.00;100085.63;7397344;19;20006;-69
2024/01/14 01:49:21;;;;;;;10.95;7.78;;;;;;;1.77;100.00;100073.59;7398450;19;20070;-68
2024/01/14 01:51:50;;;;;;;12.90;8.60;;;;;;;1.72;100.00;100086.50;7398299;19;20066;-68
2024/01/14 01:54:23;;;;;;;12.85;8.77;;;;;;;1.71;100.00;100073.56;7396776;19;20086;-67
2024/01/14 01:56:55;;;;;;;13.95;8.90;;;;;;;1.66;100.00;100081.28;7398150;19;20506;-67
2024/01/14 01:59:24;;;;;;;11.73;8.68;;;;;;;1.65;100.00;100079.56;7398839;19;20019;-68
2024/01/14 02:01:54;;;;;;;13.25;9.10;;;;;;;1.63;100.00;100078.69;7398371;19;20087;-68
2024/01/14 02:04:23;;;;;;;11.75;8.55;;;;;;;1.60;100.00;100076.09;7397060;19;20481;-68
2024/01/14 02:06:52;;;;;;;14.00;9.43;;;;;;;1.57;100.00;100079.53;7398027;19;20020;-70
2024/01/14 02:09:21;;;;;;;13.25;9.88;;;;;;;1.54;100.00;100084.69;7397983;19;20018;-70
2024/01/14 02:11:50;;;;;;;12.25;8.73;;;;;;;1.51;100.00;100083.81;7397989;19;20087;-69
2024/01/14 02:14:21;;;;;;;13.80;9.00;;;;;;;1.49;100.00;100094.13;7396594;19;20412;-68
2024/01/14 02:16:49;;;;;;;15.40;9.60;;;;;;;1.48;100.00;100083.78;7398177;19;20018;-68
2024/01/14 02:19:17;;;;;;;14.25;10.55;;;;;;;1.45;100.00;100090.69;7397706;19;20018;-68
2024/01/14 02:21:48;;;;;;;14.13;9.35;;;;;;;1.42;100.00;100077.72;7397300;19;20082;-68
2024/01/14 02:24:27;;;;;;;13.00;9.38;;;;;;;1.41;100.00;100068.25;7395673;19;20014;-69
2024/01/14 02:26:56;;;;;;;12.50;9.48;;;;;;;1.39;100.00;100071.69;7397945;19;20019;-70
2024/01/14 02:29:28;;;;;;;13.68;9.68;;;;;;;1.34;100.00;100069.09;7396989;19;20477;-69
2024/01/14 02:32:03;;;;;;;15.40;10.18;;;;;;;1.31;100.00;100074.22;7396198;19;20015;-69
2024/01/14 02:34:32;;;;;;;14.35;10.25;;;;;;;1.31;100.00;100071.66;7395524;19;20078;-69
2024/01/14 02:37:00;;;;;;;17.02;10.88;;;;;;;1.29;100.00;100078.53;7397097;19;20089;-69
2024/01/14 02:39:32;;;;;;;11.40;8.27;;;;;;;1.24;100.00;100065.59;7397043;19;20074;-69
2024/01/14 02:42:00;;;;;;;10.95;7.28;;;;;;;1.22;100.00;100050.94;7397388;19;20082;-69
2024/01/14 02:44:28;;;;;;;9.27;6.80;;;;;;;1.18;100.00;100057.81;7395316;19;20074;-69
2024/01/14 02:46:57;;;;;;;11.60;7.50;;;;;;;1.19;100.00;100061.22;7396499;19;20418;-69
2024/01/14 02:49:25;;;;;;;9.65;6.70;;;;;;;1.17;100.00;100057.78;7396294;19;20015;-69
2024/01/14 02:51:54;;;;;;;9.65;5.95;;;;;;;1.16;100.00;100056.06;7395007;19;20010;-69
2024/01/14 02:54:22;;;;;;;9.18;6.00;;;;;;;1.12;100.00;100056.03;7394773;19;20082;-69
2024/01/14 02:56:53;;;;;;;11.73;5.80;;;;;;;1.12;100.00;100062.94;7396053;19;20497;-69
2024/01/14 02:59:22;;;;;;;7.82;4.97;;;;;;;1.10;100.00;100052.59;7394753;19;20015;-69
2024/01/14 03:01:50;;;;;;;5.78;4.43;;;;;;;1.02;100.00;100038.75;7395955;19;20010;-69
2024/01/14 03:04:19;;;;;;;8.05;3.78;;;;;;;1.07;100.00;100056.88;7394829;19;20039;-69
2024/01/14 03:06:47;;;;;;;6.97;3.72;;;;;;;1.07;100.00;100067.22;7394533;19;20070;-69
2024/01/14 03:09:16;;;;;;;6.75;3.58;;;;;;;1.06;100.00;100061.19;7395719;19;20011;-68
2024/01/14 03:11:44;;;;;;;4.65;3.22;;;;;;;1.09;100.00;100057.75;7394525;19;20376;-69
2024/01/14 03:14:16;;;;;;;4.60;2.75;;;;;;;1.10;100.00;100057.75;7394710;19;20070;-69
2024/01/14 03:16:45;;;;;;;5.30;2.97;;;;;;;1.12;100.00;100057.75;7395685;19;20025;-69
2024/01/14 03:19:13;;;;;;;4.20;2.97;;;;;;;1.12;100.00;100058.59;7395912;19;20070;-68
2024/01/14 03:21:42;;;;;;;7.57;3.00;;;;;;;1.13;100.00;100068.09;7395745;19;20010;-68
2024/01/14 03:24:10;;;;;;;7.72;3.88;;;;;;;1.18;100.00;100051.78;7393989;19;20365;-68
2024/01/14 03:26:39;;;;;;;9.30;3.70;;;;;;;1.19;100.00;100066.41;7395179;19;20015;-68
2024/01/14 03:29:07;;;;;;;7.55;3.92;;;;;;;1.18;100.00;100052.63;7395412;19;20010;-68
2024/01/14 03:31:38;;;;;;;6.30;4.20;;;;;;;1.18;100.00;100054.38;7394049;19;20035;-68
2024/01/14 03:34:07;;;;;;;5.88;3.85;;;;;;;1.16;100.00;100030.22;7393261;19;20537;-68
2024/01/14 03:36:35;;;;;;;6.50;4.40;;;;;;;1.14;100.00;100040.56;7395287;19;20078;-68
2024/01/14 03:39:06;;;;;;;8.77;4.72;;;;;;;1.12;100.00;100029.34;7393617;19;20078;-69
2024/01/14 03:41:35;;;;;;;11.93;4.97;;;;;;;1.10;100.00;100026.75;7395453;19;20011;-68
2024/01/14 03:44:03;;;;;;;9.52;5.13;;;;;;;1.09;100.00;100024.16;7393478;19;20429;-68
2024/01/14 03:46:32;;;;;;;11.07;4.90;;;;;;;1.03;100.00;100014.66;7395006;19;20024;-69
2024/01/14 03:49:03;;;;;;;7.55;4.20;;;;;;;1.06;100.00;100024.13;7394578;19;20076;-68
2024/01/14 03:51:31;;;;;;;7.45;4.88;;;;;;;1.02;100.00;100006.91;7392659;19;20082;-68
2024/01/14 03:54:00;;;;;;;10.50;4.82;;;;;;;1.02;100.00;100017.22;7393535;19;20018;-68
2024/01/14 03:56:28;;;;;;;8.07;4.35;;;;;;;1.00;100.00;100016.34;7394407;19;20013;-68
2024/01/14 03:58:56;;;;;;;6.22;3.65;;;;;;;0.93;100.00;100024.06;7394716;19;20083;-68
2024/01/14 04:01:25;;;;;;;8.48;3.78;;;;;;;0.91;100.00;100019.75;7394348;19;20513;-68
2024/01/14 04:03:53;;;;;;;8.35;3.78;;;;;;;0.89;100.00;100016.31;7393299;19;20090;-68
2024/01/14 04:06:25;;;;;;;9.07;3.47;;;;;;;0.87;100.00;100018.84;7394562;19;20014;-68
2024/01/14 04:08:53;;;;;;;11.52;3.58;;;;;;;0.85;100.00;100012.84;7393035;19;20015;-68
2024/01/14 04:11:22;;;;;;;7.50;3.38;;;;;;;0.84;100.00;100012.81;7399059;19;20011;-68
2024/01/14 04:13:51;;;;;;;6.15;3.08;;;;;;;0.83;100.00;100008.50;7399995;19;20022;-68
2024/01/14 04:16:19;;;;;;;8.68;3.45;;;;;;;0.81;100.00;100001.63;7401895;19;20078;-68
2024/01/14 04:18:48;;;;;;;7.93;3.10;;;;;;;0.80;100.00;100007.63;7402683;19;20046;-68
2024/01/14 04:21:25;;;;;;;8.60;3.05;;;;;;;0.78;100.00;100014.53;7403889;19;20480;-68
2024/01/14 04:23:53;;;;;;;12.23;3.13;;;;;;;0.76;100.00;99989.53;7400329;19;20070;-68
2024/01/14 04:26:22;;;;;;;7.95;3.00;;;;;;;0.77;100.00;99994.72;7401084;19;20536;-68
2024/01/14 04:28:51;;;;;;;11.98;3.45;;;;;;;0.79;100.00;100000.72;7401422;19;20017;-68
2024/01/14 04:31:19;;;;;;;7.55;3.17;;;;;;;0.78;100.00;100004.19;7399092;19;20078;-67
2024/01/14 04:33:49;;;;;;;11.98;2.78;;;;;;;0.78;100.00;99999.03;7398549;19;20513;-68
2024/01/14 04:36:17;;;;;;;12.95;3.05;;;;;;;0.79;100.00;100005.91;7401279;19;20103;-68
2024/01/14 04:38:49;;;;;;;11.73;2.67;;;;;;;0.79;100.00;100005.91;7401142;19;20030;-68
2024/01/14 04:41:17;;;;;;;11.27;2.78;;;;;;;0.78;100.00;100006.78;7398929;19;20086;-68
2024/01/14 04:43:46;;;;;;;8.98;2.88;;;;;;;0.77;100.00;100038.59;7397853;19;20031;-68
2024/01/14 04:46:14;;;;;;;8.27;2.53;;;;;;;0.78;100.00;100019.69;7400464;19;20015;-68
2024/01/14 04:48:43;;;;;;;6.85;2.90;;;;;;;0.78;100.00;100018.81;7400148;19;20521;-68
2024/01/14 04:51:12;;;;;;;11.57;2.85;;;;;;;0.80;100.00;100023.13;7399463;19;20006;-68
2024/01/14 04:53:41;;;;;;;5.72;2.72;;;;;;;0.82;100.00;100028.28;7398753;19;20018;-69
2024/01/14 04:56:12;;;;;;;7.88;2.38;;;;;;;0.83;100.00;100021.44;7400607;19;20010;-68
2024/01/14 04:58:40;;;;;;;7.28;2.90;;;;;;;0.82;100.00;100020.53;7397614;19;20549;-68
2024/01/14 05:01:09;;;;;;;12.65;3.13;;;;;;;0.82;100.00;100005.03;7400358;19;20028;-69
2024/01/14 05:03:38;;;;;;;7.97;3.15;;;;;;;0.82;100.00;100010.22;7398824;19;20082;-68
2024/01/14 05:06:07;;;;;;;6.65;2.83;;;;;;;0.86;100.00;100003.34;7397666;19;20018;-67
2024/01/14 05:08:35;;;;;;;9.25;2.30;;;;;;;0.84;100.00;100018.84;7399971;19;20035;-70
2024/01/14 05:11:04;;;;;;;7.70;2.53;;;;;;;0.86;100.00;100001.66;7398825;19;20014;-69
2024/01/14 05:13:35;;;;;;;8.18;1.90;;;;;;;0.87;100.00;100000.78;7398700;19;20425;-68
2024/01/14 05:16:03;;;;;;;11.25;1.90;;;;;;;0.89;100.00;100003.38;7399924;19;20435;-68
2024/01/14 05:18:32;;;;;;;4.72;1.73;;;;;;;0.90;100.00;99992.22;7399368;19;20397;-67
2024/01/14 05:21:00;;;;;;;9.73;2.40;;;;;;;0.90;100.00;100002.53;7397710;19;20091;-68
2024/01/14 05:23:29;;;;;;;5.68;2.00;;;;;;;0.90;100.00;99984.47;7397192;19;20015;-68
2024/01/14 05:25:57;;;;;;;5.28;2.00;;;;;;;0.92;100.00;100003.38;7399178;19;20372;-68
2024/01/14 05:28:26;;;;;;;5.18;1.88;;;;;;;0.92;100.00;100006.84;7399474;19;20090;-68
2024/01/14 05:30:57;;;;;;;4.25;1.60;;;;;;;0.90;100.00;99999.97;7397712;19;20011;-68
2024/01/14 05:33:25;;;;;;;4.00;1.55;;;;;;;0.89;100.00;100006.81;7398337;19;20014;-68
2024/01/14 05:35:54;;;;;;;4.05;2.22;;;;;;;0.91;100.00;100001.66;7398930;19;20083;-68
2024/01/14 05:38:22;;;;;;;3.35;1.70;;;;;;;0.92;100.00;100005.97;7399241;19;20087;-68
2024/01/14 05:40:51;;;;;;;4.35;1.92;;;;;;;0.91;100.00;100006.81;7398876;19;20079;-68
2024/01/14 05:43:19;;;;;;;6.32;2.17;;;;;;;0.89;100.00;100005.97;7398099;19;20011;-68
2024/01/14 05:45:48;;;;;;;3.63;1.90;;;;;;;0.90;100.00;100012.88;7398975;19;20077;-68
2024/01/14 05:48:20;;;;;;;5.00;1.75;;;;;;;0.91;100.00;100004.25;7398947;19;20018;-68
2024/01/14 05:50:48;;;;;;;3.75;1.70;;;;;;;0.89;100.00;99990.47;7397036;19;20078;-68
2024/01/14 05:53:17;;;;;;;6.40;2.58;;;;;;;0.89;100.00;100005.97;7396342;19;20019;-69
2024/01/14 05:55:45;;;;;;;3.72;2.15;;;;;;;0.89;100.00;99993.91;7398486;19;20011;-68
2024/01/14 05:58:14;;;;;;;5.88;2.00;;;;;;;0.91;100.00;99988.75;7398609;19;20086;-68
2024/01/14 06:00:42;;;;;;;6.75;2.35;;;;;;;0.92;100.00;99990.47;7398545;19;20039;-69
2024/01/14 06:03:10;;;;;;;6.90;2.10;;;;;;;0.91;100.00;99992.22;7397504;19;20074;-68
2024/01/14 06:05:41;;;;;;;7.90;2.60;;;;;;;0.90;100.00;99985.31;7397928;19;20019;-68
2024/01/14 06:08:10;;;;;;;6.32;2.40;;;;;;;0.90;100.00;99999.97;7398565;19;20013;-69
2024/01/14 06:10:38;;;;;;;10.45;2.53;;;;;;;0.90;100.00;100000.81;7398188;19;20007;-69
2024/01/14 06:13:07;;;;;;;10.25;2.85;;;;;;;0.92;100.00;99982.72;7395946;19;20082;-69
2024/01/14 06:15:35;;;;;;;12.77;3.05;;;;;;;0.93;100.00;99995.66;7398096;19;20074;-69
2024/01/14 06:18:04;;;;;;;7.68;2.85;;;;;;;0.92;100.00;100001.69;7398338;19;20028;-69
2024/01/14 06:20:32;;;;;;;7.13;2.40;;;;;;;0.93;100.00;99992.22;7397477;19;20501;-69
2024/01/14 06:23:04;;;;;;;5.78;2.33;;;;;;;0.91;100.00;99988.75;7396809;19;20416;-69
2024/01/14 06:25:33;;;;;;;8.07;2.83;;;;;;;0.95;100.00;100001.69;7395470;19;20511;-69
2024/01/14 06:28:09;;;;;;;11.13;3.38;;;;;;;0.93;100.00;99992.22;7397576;19;20021;-69
2024/01/14 06:30:44;;;;;;;10.40;3.45;;;;;;;0.93;100.00;100003.41;7395584;19;20485;-68
2024/01/14 06:33:20;;;;;;;9.13;3.90;;;;;;;0.92;100.00;99996.53;7395296;19;20173;-68
2024/01/14 06:35:48;;;;;;;9.48;3.88;;;;;;;0.95;100.00;100000.84;7397946;19;20014;-68
2024/01/14 06:38:19;;;;;;;8.85;3.53;;;;;;;0.96;100.00;99987.03;7399123;19;20014;-68
2024/01/14 06:40:47;;;;;;;12.32;4.80;;;;;;;0.97;100.00;99996.53;7397267;19;20427;-68
2024/01/14 06:43:16;;;;;;;11.13;5.10;;;;;;;0.99;100.00;99997.41;7396295;19;20088;-68
2024/01/14 06:45:44;;;;;;;10.40;3.80;;;;;;;0.98;100.00;100000.84;7397023;19;20078;-68
2024/01/14 06:48:13;;;;;;;11.57;4.15;;;;;;;1.01;100.00;99990.56;7396849;19;20082;-68
2024/01/14 06:50:41;;;;;;;9.05;4.15;;;;;;;1.03;100.00;99986.22;7396323;19;20015;-68
2024/01/14 06:53:09;;;;;;;13.25;4.40;;;;;;;1.03;100.00;99988.81;7394912;19;20413;-68
2024/01/14 06:55:40;;;;;;;9.57;4.40;;;;;;;1.05;100.00;99991.41;7396777;19;20083;-68
2024/01/14 06:58:09;;;;;;;6.18;3.80;;;;;;;1.11;100.00;100001.78;7396372;19;20537;-68
2024/01/14 07:00:38;;;;;;;12.10;3.63;;;;;;;1.14;100.00;100001.81;7396540;19;20074;-68
2024/01/14 07:03:06;;;;;;;11.38;4.22;;;;;;;1.16;100.00;99996.63;7395670;19;20027;-68
2024/01/14 07:05:35;;;;;;;11.73;5.80;;;;;;;1.20;100.00;100001.84;7395931;19;20010;-69
2024/01/14 07:08:04;;;;;;;7.38;4.55;;;;;;;1.21;100.00;100011.28;7396043;19;20078;-69
2024/01/14 07:10:33;;;;;;;7.03;3.92;;;;;;;1.23;100.00;100003.56;7395545;19;20025;-68
2024/01/14 07:13:04;;;;;;;6.50;3.47;;;;;;;1.24;100.00;100007.84;7394098;19;20102;-69
2024/01/14 07:15:32;;;;;;;9.63;4.07;;;;;;;1.24;100.00;100000.09;7394822;19;20031;-69
2024/01/14 07:18:02;;;;;;;20.13;7.07;;;;;;;1.21;100.00;99998.38;7395648;19;20541;-69
2024/01/14 07:20:30;;;;;;;12.95;6.05;;;;;;;1.18;100.00;100003.53;7396005;19;20070;-68
2024/01/14 07:22:59;;;;;;;8.45;4.88;;;;;;;1.20;100.00;99998.38;7395234;19;20070;-69
2024/01/14 07:25:28;;;;;;;6.70;3.78;;;;;;;1.19;100.00;99992.34;7395395;19;20074;-68
2024/01/14 07:27:56;;;;;;;9.88;4.00;;;;;;;1.19;100.00;99991.47;7395678;19;20091;-68
2024/01/14 07:30:27;;;;;;;7.38;3.85;;;;;;;1.19;100.00;99981.13;7393404;19;20011;-68
2024/01/14 07:32:56;;;;;;;5.20;3.22;;;;;;;1.18;100.00;99982.00;7394433;19;20078;-69
2024/01/14 07:35:25;;;;;;;8.15;3.58;;;;;;;1.18;100.00;99989.75;7395222;19;20027;-69
2024/01/14 07:37:54;;;;;;;5.13;3.03;;;;;;;1.15;100.00;100006.13;7395392;19;20006;-69
2024/01/14 07:40:22;;;;;;;8.73;3.50;;;;;;;1.12;100.00;99993.16;7394776;19;20010;-68
2024/01/14 07:42:51;;;;;;;6.90;3.47;;;;;;;1.11;100.00;99989.72;7394787;19;20019;-68
2024/01/14 07:45:19;;;;;;;8.30;4.03;;;;;;;1.08;100.00;99989.69;7404938;19;20075;-68
2024/01/14 07:47:50;;;;;;;7.60;3.50;;;;;;;1.03;100.00;100000.88;7409270;19;20078;-69
2024/01/14 07:50:18;;;;;;;6.32;3.38;;;;;;;1.02;100.00;99992.25;7409541;19;20477;-68
2024/01/14 07:52:47;;;;;;;5.13;2.92;;;;;;;1.00;100.00;99985.34;7408010;19;20094;-68
2024/01/14 07:55:16;;;;;;;5.18;2.75;;;;;;;0.93;100.00;99992.22;7407407;19;20015;-67
2024/01/14 07:57:44;;;;;;;6.95;3.38;;;;;;;0.94;100.00;99988.78;7409026;19;20018;-66
2024/01/14 08:00:14;;;;;;;7.82;3.45;;;;;;;0.89;100.00;99996.50;7408548;19;20018;-67
2024/01/14 08:02:42;;;;;;;7.35;3.20;;;;;;;0.87;100.00;99999.91;7406874;19;20015;-67
2024/01/14 08:05:14;;;;;;;7.05;3.28;;;;;;;0.84;100.00;99997.34;7408480;19;20082;-67
2024/01/14 08:07:43;;;;;;;8.05;2.78;;;;;;;0.82;100.00;100002.47;7406604;19;20383;-67
2024/01/14 08:10:13;;;;;;;6.07;3.03;;;;;;;0.84;100.00;99994.75;7408787;19;20081;-67
2024/01/14 08:12:41;;;;;;;7.20;3.10;;;;;;;0.84;100.00;99993.03;7406523;19;20021;-67
2024/01/14 08:15:10;;;;;;;9.77;4.35;;;;;;;0.85;100.00;100001.63;7408708;19;20010;-68
2024/01/14 08:17:39;;;;;;;9.55;5.10;;;;;;;0.84;100.00;99999.91;7408338;19;20086;-68
2024/01/14 08:20:10;;;;;;;7.97;4.40;;;;;;;0.84;100.00;99999.91;7408032;19;20003;-68
2024/01/14 08:22:42;;;;;;;13.27;5.80;;;;;;;0.92;100.00;100004.28;7408419;19;20011;-68
2024/01/14 08:25:11;;;;;;;10.93;4.53;;;;;;;1.03;100.00;100000.88;7408731;19;20015;-68
2024/01/14 08:27:46;;;;;;;8.93;3.80;;;;;;;1.04;100.00;100006.06;7407856;19;20497;-68
2024/01/14 08:30:15;;;;;;;8.75;3.47;;;;;;;1.05;100.00;100009.47;7408138;19;20031;-68
2024/01/14 08:32:43;;;;;;;13.05;3.55;;;;;;;1.04;100.00;100000.88;7406318;19;20015;-69
2024/01/14 08:35:13;;;;;;;11.48;4.20;;;;;;;1.05;100.00;99997.44;7407616;19;20525;-68
2024/01/14 08:38:06;;;;;;;9.15;4.05;;;;;;;1.06;100.00;99998.31;7407395;19;20007;-69
2024/01/14 08:40:34;;;;;;;8.05;4.55;;;;;;;1.07;100.00;100000.88;7407699;19;20509;-69
2024/01/14 08:43:03;;;;;;;10.98;4.30;;;;;;;1.08;100.00;99996.59;7407200;19;20027;-69
2024/01/14 08:45:31;;;;;;;9.45;4.55;;;;;;;1.10;100.00;99988.00;7407583;19;20090;-69
2024/01/14 08:48:00;;;;;;;6.13;5.20;;;;;;;1.10;100.00;99988.00;7407892;19;20027;-69
2024/01/14 08:50:28;;;;;;;7.70;4.70;;;;;;;1.11;100.00;99989.72;7405302;19;20018;-68
2024/01/14 08:52:56;;;;;;;6.18;3.88;;;;;;;1.12;100.00;99988.84;7406007;19;20070;-68
2024/01/14 08:55:28;;;;;;;7.20;5.32;;;;;;;1.14;100.00;99989.72;7406553;19;20082;-69
2024/01/14 08:57:57;;;;;;;11.75;4.20;;;;;;;1.16;100.00;99991.47;7397217;19;20030;-68
2024/01/14 09:00:25;;;;;;;10.48;5.18;;;;;;;1.16;100.00;100002.66;7400527;19;20015;-68
2024/01/14 09:02:54;;;;;;;10.73;4.60;;;;;;;1.19;100.00;100002.69;7399172;19;20031;-68
2024/01/14 09:05:22;;;;;;;9.77;4.93;;;;;;;1.24;100.00;100006.16;7399957;19;20427;-65
2024/01/14 09:07:51;;;;;;;8.38;3.88;;;;;;;1.33;100.00;100002.75;7400092;19;20031;-66
2024/01/14 09:10:19;;;;;;;9.38;4.00;;;;;;;1.40;100.00;100013.97;7399990;19;20073;-68
2024/01/14 09:12:50;;;;;;;7.68;4.00;;;;;;;1.40;100.00;100019.13;7398567;19;20077;-68
2024/01/14 09:15:20;;;;;;;10.27;2.85;;;;;;;1.39;100.00;100017.41;7400300;19;20062;-68
2024/01/14 09:17:48;;;;;;;6.30;2.80;;;;;;;1.39;100.00;100032.91;7399843;19;20011;-68
2024/01/14 09:20:17;;;;;;;5.85;2.80;;;;;;;1.41;100.00;100011.38;7397008;19;20002;-68
2024/01/14 09:22:45;;;;;;;8.85;3.80;;;;;;;1.41;100.00;100013.97;7398766;19;20015;-68
2024/01/14 09:25:14;;;;;;;7.13;3.00;;;;;;;1.41;100.00;100011.38;7396848;19;20466;-68
2024/01/14 09:27:42;;;;;;;10.77;4.28;;;;;;;1.41;100.00;100016.53;7399110;19;20011;-68
2024/01/14 09:30:15;;;;;;;20.88;11.95;;;;;;;1.44;100.00;100018.28;7396894;19;20007;-71
2024/01/14 09:32:49;;;;;;;6.82;3.30;;;;;;;1.47;100.00;100015.72;7397327;19;20426;-69
2024/01/14 09:35:18;;;;;;;7.22;3.28;;;;;;;1.49;100.00;100019.16;7399647;19;20075;-69
2024/01/14 09:37:46;;;;;;;7.65;2.65;;;;;;;1.53;100.00;100031.25;7398928;19;20086;-68
2024/01/14 09:40:17;;;;;;;7.40;2.53;;;;;;;1.56;100.00;100030.41;7399115;19;20073;-69
2024/01/14 09:42:47;;;;;;;6.85;2.75;;;;;;;1.58;100.00;100036.44;7398068;19;20030;-68
2024/01/14 09:45:21;;;;;;;10.98;2.90;;;;;;;1.63;100.00;100016.63;7398913;19;20021;-66
2024/01/14 09:47:50;;;;;;;7.35;3.55;;;;;;;1.68;100.00;100025.28;7399321;19;20037;-67
2024/01/14 09:50:19;;;;;;;10.70;3.55;;;;;;;1.71;100.00;100024.44;7396329;19;20074;-67
2024/01/14 09:52:48;;;;;;;7.78;3.33;;;;;;;1.75;100.00;100021.84;7397318;19;20398;-67
2024/01/14 09:55:17;;;;;;;8.95;4.15;;;;;;;1.81;100.00;100009.78;7398664;19;20025;-67
2024/01/14 09:57:50;;;;;;;9.55;4.28;;;;;;;1.83;100.00;100015.81;7398267;19;20476;-67
2024/01/14 10:00:24;;;;;;;8.90;4.72;;;;;;;1.84;100.00;100010.66;7398924;19;20021;-67
2024/01/14 10:02:54;;;;;;;7.85;3.58;;;;;;;1.86;100.00;100015.81;7398073;19;20089;-66
2024/01/14 10:05:23;;;;;;;7.95;3.00;;;;;;;1.86;100.00;100023.56;7396224;19;20014;-66
2024/01/14 10:07:51;;;;;;;7.43;3.25;;;;;;;1.89;100.00;100008.06;7397176;19;20419;-67
2024/01/14 10:10:20;;;;;;;3.83;2.88;;;;;;;1.90;100.00;99994.28;7398648;19;20026;-66
2024/01/14 10:12:51;;;;;;;7.90;3.40;;;;;;;1.93;100.00;100002.03;7397108;19;20086;-66
2024/01/14 10:15:22;;;;;;;7.28;3.22;;;;;;;1.94;100.00;99996.00;7396431;19;20018;-66
2024/01/14 10:17:50;;;;;;;7.70;3.22;;;;;;;1.94;100.00;99986.50;7398505;19;20086;-66
2024/01/14 10:20:22;;;;;;;4.45;2.72;;;;;;;1.99;100.00;99993.44;7397959;19;20015;-67
2024/01/14 10:22:50;;;;;;;4.72;2.85;;;;;;;2.02;100.00;99994.31;7397243;19;20018;-67
2024/01/14 10:25:20;;;;;;;7.47;3.00;;;;;;;2.04;100.00;99992.56;7397129;19;20018;-66
2024/01/14 10:27:49;;;;;;;6.63;2.53;;;;;;;2.06;100.00;99996.03;7397158;19;20014;-66
2024/01/14 10:30:18;;;;;;;9.57;4.00;;;;;;;2.08;100.00;99990.84;7396935;19;20006;-66
2024/01/14 10:32:55;;;;;;;8.77;3.25;;;;;;;2.07;100.00;99994.31;7395331;19;20023;-67
2024/01/14 10:35:26;;;;;;;8.88;3.22;;;;;;;2.07;100.00;99991.72;7396936;19;20014;-67
2024/01/14 10:37:55;;;;;;;9.02;3.47;;;;;;;2.11;100.00;99983.06;7396992;19;20074;-68
2024/01/14 10:40:24;;;;;;;12.38;3.92;;;;;;;2.08;100.00;99983.09;7396963;19;20078;-67
2024/01/14 10:42:53;;;;;;;12.93;4.13;;;;;;;2.09;100.00;99979.66;7396551;19;20095;-67
2024/01/14 10:45:21;;;;;;;5.55;3.58;;;;;;;2.09;100.00;99985.69;7396340;19;20070;-66
2024/01/14 10:47:53;;;;;;;10.57;3.85;;;;;;;2.09;100.00;99987.41;7396568;19;20513;-66
2024/01/14 10:50:27;;;;;;;13.88;4.30;;;;;;;2.10;100.00;99986.56;7397242;19;20078;-67
2024/01/14 10:52:56;;;;;;;9.55;3.95;;;;;;;2.09;100.00;99983.09;7396483;19;20066;-67
2024/01/14 10:55:36;;;;;;;7.85;3.28;;;;;;;2.10;100.00;99983.97;7396560;19;20011;-67
2024/01/14 10:58:06;;;;;;;8.25;3.50;;;;;;;2.11;100.00;99973.59;7396920;19;20078;-71
2024/01/14 11:00:38;;;;;;;5.65;3.00;;;;;;;2.15;100.00;99978.78;7396079;19;20011;-67
2024/01/14 11:03:08;;;;;;;9.27;3.45;;;;;;;2.15;100.00;99969.31;7396580;19;20422;-67
2024/01/14 11:05:40;;;;;;;6.68;2.90;;;;;;;2.17;100.00;99972.72;7397984;19;20018;-66
2024/01/14 11:08:08;;;;;;;7.53;3.90;;;;;;;2.19;100.00;99959.81;7394824;19;20078;-67
2024/01/14 11:10:37;;;;;;;10.55;4.65;;;;;;;2.19;100.00;99960.66;7396442;19;20087;-67
2024/01/14 11:13:18;;;;;;;7.90;3.58;;;;;;;2.23;100.00;99958.94;7395484;19;20026;-66
2024/01/14 11:16:00;;;;;;;8.32;3.10;;;;;;;2.25;100.00;99952.03;7394505;19;20354;-68
2024/01/14 11:18:40;;;;;;;7.45;3.00;;;;;;;2.30;100.00;99947.75;7393675;19;20101;-66
2024/01/14 11:21:26;;;;;;;10.73;2.88;;;;;;;2.30;99.88;99952.91;7395853;19;20090;-66
2024/01/14 11:23:54;;;;;;;5.35;2.97;;;;;;;2.33;100.00;99947.72;7393568;19;20010;-66
2024/01/14 11:26:26;;;;;;;6.80;2.85;;;;;;;2.33;100.00;99944.28;7394908;19;20094;-66
2024/01/14 11:28:54;;;;;;;7.40;2.92;;;;;;;2.32;100.00;99932.19;7395215;19;20074;-66
2024/01/14 11:32:05;;;;;;;52.65;20.85;;;;;;;2.30;98.55;99929.63;7393485;19;20101;-68
2024/01/14 11:35:02;;;;;;;10.05;4.53;;;;;;;2.30;100.00;99921.84;7392812;19;20558;-68
2024/01/14 11:37:46;;;;;;;17.50;7.88;;;;;;;2.30;99.69;99927.03;7393368;19;20021;-67